Time;durP1;ratioP1;P1;durP2;ratioP2;P2;SDS_P1;SDS_P2;PMS_P1;PMS_P2;Temp;Humidity;BMP_temperature;BMP_pressure;BME280_temperature;BME280_humidity;BME280_pressure;Samples;Min_cycle;Max_cycle;Signal;HPM_P1;HPM_P2
2024/02/14 00:01:08;;;;;;;1.90;1.60;;;9.60;99.90;;;;;;4972706;28;20467;-68
2024/02/14 00:03:36;;;;;;;1.83;1.40;;;9.60;99.90;;;;;;4968778;28;20556;-68
2024/02/14 00:06:06;;;;;;;1.97;1.23;;;9.60;99.90;;;;;;4969001;28;20578;-68
2024/02/14 00:08:33;;;;;;;3.70;2.03;;;9.70;99.90;;;;;;4970345;28;20448;-68
2024/02/14 00:11:00;;;;;;;1.73;1.33;;;9.70;99.90;;;;;;4974635;28;20508;-68
2024/02/14 00:13:27;;;;;;;1.53;1.43;;;9.70;99.90;;;;;;4975089;28;20466;-68
2024/02/14 00:15:53;;;;;;;1.73;1.23;;;9.60;99.90;;;;;;4972247;28;20529;-68
2024/02/14 00:18:20;;;;;;;2.93;1.97;;;9.50;99.90;;;;;;4970198;28;20581;-67
2024/02/14 00:20:47;;;;;;;1.40;1.30;;;9.50;99.90;;;;;;4965794;28;20438;-68
2024/02/14 00:23:15;;;;;;;1.97;1.40;;;9.60;99.90;;;;;;4972296;28;20476;-68
2024/02/14 00:25:42;;;;;;;3.63;1.97;;;9.60;99.90;;;;;;4970184;28;20464;-68
2024/02/14 00:28:09;;;;;;;3.20;1.90;;;9.70;99.90;;;;;;4975659;28;20458;-68
2024/02/14 00:30:35;;;;;;;1.83;1.47;;;9.60;99.90;;;;;;4963947;28;20491;-67
2024/02/14 00:33:02;;;;;;;1.27;1.17;;;9.60;99.90;;;;;;4965250;28;20477;-67
2024/02/14 00:35:29;;;;;;;1.63;1.30;;;9.50;99.90;;;;;;4969548;28;20472;-67
2024/02/14 00:37:56;;;;;;;1.10;1.00;;;9.50;99.90;;;;;;4968729;28;20506;-67
2024/02/14 00:40:24;;;;;;;1.97;1.00;;;9.40;99.90;;;;;;4973113;28;20466;-67
2024/02/14 00:42:50;;;;;;;1.20;1.00;;;9.50;99.90;;;;;;4974850;28;20458;-67
2024/02/14 00:45:17;;;;;;;1.87;1.40;;;9.40;99.90;;;;;;4968767;28;20512;-68
2024/02/14 00:47:44;;;;;;;7.90;1.80;;;9.50;99.90;;;;;;4976375;28;20466;-67
2024/02/14 00:50:13;;;;;;;1.40;1.30;;;9.50;99.90;;;;;;4970523;28;20482;-67
2024/02/14 00:52:40;;;;;;;2.53;1.87;;;9.60;99.90;;;;;;4979160;28;20583;-67
2024/02/14 00:55:07;;;;;;;3.57;1.20;;;9.60;99.90;;;;;;4972498;28;20458;-66
2024/02/14 00:57:35;;;;;;;2.17;1.13;;;9.60;99.90;;;;;;4976393;28;20494;-67
2024/02/14 01:00:03;;;;;;;2.30;1.63;;;9.50;99.90;;;;;;4981960;28;20462;-67
2024/02/14 01:02:30;;;;;;;1.20;1.10;;;9.50;99.90;;;;;;4972315;28;20470;-68
2024/02/14 01:04:57;;;;;;;3.00;1.70;;;9.50;99.90;;;;;;4976876;28;20842;-66
2024/02/14 01:07:24;;;;;;;1.63;1.53;;;9.40;99.90;;;;;;4979553;28;20492;-68
2024/02/14 01:09:51;;;;;;;3.47;1.57;;;9.40;99.90;;;;;;4968885;28;20482;-68
2024/02/14 01:12:18;;;;;;;2.90;1.70;;;9.40;99.90;;;;;;4977190;28;20470;-67
2024/02/14 01:14:46;;;;;;;5.53;1.57;;;9.30;99.90;;;;;;4978982;28;20459;-67
2024/02/14 01:17:13;;;;;;;1.50;1.40;;;9.30;99.90;;;;;;4975550;28;20489;-67
2024/02/14 01:19:39;;;;;;;5.20;1.40;;;9.40;99.90;;;;;;4974536;28;20454;-67
2024/02/14 01:22:08;;;;;;;1.60;1.43;;;9.30;99.90;;;;;;4976758;28;20478;-67
2024/02/14 01:24:35;;;;;;;1.60;1.40;;;9.30;99.90;;;;;;4979463;28;20474;-66
2024/02/14 01:27:02;;;;;;;2.90;1.40;;;9.30;99.90;;;;;;4970167;28;21185;-67
2024/02/14 01:29:29;;;;;;;2.57;1.53;;;9.40;99.90;;;;;;4972319;28;20491;-67
2024/02/14 01:31:57;;;;;;;3.20;1.30;;;9.40;99.90;;;;;;4975121;28;20462;-67
2024/02/14 01:34:24;;;;;;;1.00;0.90;;;9.40;99.90;;;;;;4975429;28;20458;-67
2024/02/14 01:36:51;;;;;;;9.60;1.57;;;9.40;99.90;;;;;;4962501;28;21066;-67
2024/02/14 01:39:18;;;;;;;2.43;1.90;;;9.20;99.90;;;;;;4974836;28;20457;-67
2024/02/14 01:41:48;;;;;;;2.40;2.20;;;9.20;99.90;;;;;;4970929;28;20467;-67
2024/02/14 01:44:15;;;;;;;1.33;1.20;;;9.30;99.90;;;;;;4980546;28;21441;-67
2024/02/14 01:46:42;;;;;;;2.90;2.03;;;9.40;99.90;;;;;;4978218;28;20507;-67
2024/02/14 01:49:12;;;;;;;2.50;1.30;;;9.40;99.90;;;;;;4974071;28;20909;-68
2024/02/14 01:51:41;;;;;;;2.40;1.43;;;9.50;99.90;;;;;;4972609;28;20566;-67
2024/02/14 01:54:09;;;;;;;16.93;2.07;;;9.40;99.90;;;;;;4978605;28;20468;-67
2024/02/14 01:56:36;;;;;;;1.60;0.90;;;9.40;99.90;;;;;;4981319;28;21101;-67
2024/02/14 01:59:03;;;;;;;1.30;0.90;;;9.30;99.90;;;;;;4986051;28;20506;-67
2024/02/14 02:01:31;;;;;;;3.67;1.50;;;9.30;99.90;;;;;;4971545;28;20437;-67
2024/02/14 02:03:58;;;;;;;1.80;1.33;;;9.20;99.90;;;;;;4980997;28;21338;-67
2024/02/14 02:06:27;;;;;;;1.47;1.00;;;9.20;99.90;;;;;;4968126;28;20496;-68
2024/02/14 02:08:54;;;;;;;2.10;1.77;;;9.20;99.90;;;;;;4973240;28;20470;-68
2024/02/14 02:11:22;;;;;;;2.43;1.43;;;9.20;99.90;;;;;;4966375;28;20466;-68
2024/02/14 02:13:48;;;;;;;1.90;1.30;;;9.30;99.90;;;;;;4968092;28;20508;-67
2024/02/14 02:16:15;;;;;;;6.50;1.63;;;9.40;99.90;;;;;;4958675;28;22091;-68
2024/02/14 02:18:42;;;;;;;1.10;1.00;;;9.20;99.90;;;;;;4970472;28;20462;-68
2024/02/14 02:21:09;;;;;;;1.67;1.40;;;9.30;99.90;;;;;;4961907;28;20554;-68
2024/02/14 02:23:37;;;;;;;1.60;1.30;;;9.30;99.90;;;;;;4966163;28;20476;-68
2024/02/14 02:26:04;;;;;;;1.50;1.13;;;9.30;99.90;;;;;;4978235;28;20493;-68
2024/02/14 02:28:31;;;;;;;1.83;1.63;;;9.30;99.90;;;;;;4977156;28;20976;-67
2024/02/14 02:30:58;;;;;;;1.63;1.53;;;9.30;99.90;;;;;;4963497;28;20486;-68
2024/02/14 02:33:26;;;;;;;1.90;1.60;;;9.40;99.90;;;;;;4971956;28;20466;-68
2024/02/14 02:35:52;;;;;;;2.87;1.33;;;9.50;99.90;;;;;;4970018;28;20485;-68
2024/02/14 02:38:21;;;;;;;2.20;1.40;;;9.50;99.90;;;;;;4969289;28;22011;-68
2024/02/14 02:40:50;;;;;;;1.63;1.53;;;9.50;99.90;;;;;;4972045;28;20467;-68
2024/02/14 02:43:16;;;;;;;1.90;1.30;;;9.40;99.90;;;;;;4973378;28;20433;-68
2024/02/14 02:45:44;;;;;;;1.80;1.67;;;9.50;99.90;;;;;;5128436;23;20526;-71
2024/02/14 02:48:10;;;;;;;1.30;1.03;;;9.60;99.90;;;;;;4933017;28;20472;-71
2024/02/14 02:50:37;;;;;;;3.00;2.70;;;9.60;99.90;;;;;;4934876;28;20875;-71
2024/02/14 02:53:04;;;;;;;1.23;0.90;;;9.50;99.90;;;;;;4937047;28;20467;-71
2024/02/14 02:55:32;;;;;;;2.03;1.40;;;9.50;99.90;;;;;;4938895;28;20482;-71
2024/02/14 02:58:00;;;;;;;4.17;2.00;;;9.50;99.90;;;;;;4938868;28;20520;-71
2024/02/14 03:00:27;;;;;;;1.93;0.90;;;9.60;99.90;;;;;;4939387;28;20460;-71
2024/02/14 03:02:54;;;;;;;1.37;1.27;;;9.60;99.90;;;;;;4940665;28;20450;-71
2024/02/14 03:05:23;;;;;;;2.60;1.43;;;9.50;99.90;;;;;;4942082;28;20436;-70
2024/02/14 03:07:50;;;;;;;1.10;1.00;;;9.60;99.90;;;;;;4936343;28;20469;-70
2024/02/14 03:10:18;;;;;;;1.30;1.10;;;9.60;99.90;;;;;;4933828;28;20572;-72
2024/02/14 03:12:47;;;;;;;1.87;1.10;;;9.60;99.90;;;;;;4929692;28;21133;-70
2024/02/14 03:15:15;;;;;;;10.13;1.67;;;9.70;99.90;;;;;;4934466;28;20990;-71
2024/02/14 03:17:42;;;;;;;1.43;1.33;;;9.70;99.90;;;;;;4936420;28;20998;-70
2024/02/14 03:20:12;;;;;;;1.60;1.10;;;9.70;99.90;;;;;;4941056;28;20520;-70
2024/02/14 03:22:41;;;;;;;2.70;1.50;;;9.70;99.90;;;;;;4932274;28;20472;-70
2024/02/14 03:25:09;;;;;;;5.47;1.30;;;9.70;99.90;;;;;;4934584;28;21821;-71
2024/02/14 03:27:39;;;;;;;3.53;1.10;;;9.70;99.90;;;;;;4934684;28;20480;-72
2024/02/14 03:30:08;;;;;;;1.63;1.27;;;9.70;99.90;;;;;;4935027;28;20512;-70
2024/02/14 03:32:36;;;;;;;9.67;3.43;;;9.70;99.90;;;;;;4928873;28;20503;-70
2024/02/14 03:35:03;;;;;;;2.20;1.80;;;9.80;99.90;;;;;;4932082;28;20446;-70
2024/02/14 03:37:30;;;;;;;3.00;1.07;;;9.80;99.90;;;;;;4930296;28;20524;-71
2024/02/14 03:39:56;;;;;;;1.93;1.40;;;9.80;99.90;;;;;;4932605;28;20475;-71
2024/02/14 03:42:23;;;;;;;3.60;1.50;;;9.90;99.90;;;;;;4930971;28;20859;-71
2024/02/14 03:44:50;;;;;;;4.23;1.43;;;9.90;99.90;;;;;;4932149;28;20473;-72
2024/02/14 03:47:17;;;;;;;1.87;1.13;;;9.80;99.90;;;;;;4929837;28;20526;-70
2024/02/14 03:49:45;;;;;;;1.77;1.13;;;9.80;99.90;;;;;;4937299;28;20490;-72
2024/02/14 03:52:11;;;;;;;1.60;1.33;;;9.80;99.90;;;;;;4935633;28;20472;-71
2024/02/14 03:54:38;;;;;;;1.63;0.90;;;9.80;99.90;;;;;;4940569;28;21140;-72
2024/02/14 03:57:08;;;;;;;3.30;2.83;;;9.80;99.90;;;;;;4940685;28;20469;-70
2024/02/14 03:59:38;;;;;;;2.23;1.77;;;9.70;99.90;;;;;;4935569;28;20555;-70
2024/02/14 04:02:06;;;;;;;2.20;1.33;;;9.60;99.90;;;;;;4933622;28;20546;-71
2024/02/14 04:04:33;;;;;;;1.83;1.43;;;9.70;99.90;;;;;;4936244;28;21040;-71
2024/02/14 04:07:02;;;;;;;2.23;1.80;;;9.50;99.90;;;;;;4932236;28;20506;-71
2024/02/14 04:09:29;;;;;;;2.60;1.87;;;9.50;99.90;;;;;;4929112;28;20483;-70
2024/02/14 04:11:56;;;;;;;1.77;1.23;;;9.40;99.90;;;;;;4933007;28;20480;-71
2024/02/14 04:14:22;;;;;;;3.40;1.47;;;9.40;99.90;;;;;;4938185;28;20527;-71
2024/02/14 04:16:49;;;;;;;1.33;1.20;;;9.40;99.90;;;;;;4931176;28;20479;-71
2024/02/14 04:19:17;;;;;;;2.07;1.50;;;9.50;99.90;;;;;;4932181;28;20456;-71
2024/02/14 04:21:44;;;;;;;2.10;1.67;;;9.50;99.90;;;;;;4936340;28;20559;-71
2024/02/14 04:24:12;;;;;;;7.23;1.57;;;9.60;99.90;;;;;;4937624;28;20441;-71
2024/02/14 04:26:39;;;;;;;1.77;1.30;;;9.60;99.90;;;;;;4927612;28;22035;-71
2024/02/14 04:29:06;;;;;;;1.60;1.10;;;9.60;99.90;;;;;;4936330;28;20479;-71
2024/02/14 04:31:32;;;;;;;2.77;1.80;;;9.80;99.90;;;;;;4935775;28;20490;-70
2024/02/14 04:34:00;;;;;;;2.00;1.40;;;9.90;99.90;;;;;;4939294;28;20475;-70
2024/02/14 04:36:27;;;;;;;1.83;1.10;;;9.80;99.90;;;;;;4939827;28;20615;-70
2024/02/14 04:38:55;;;;;;;5.93;2.03;;;9.80;99.90;;;;;;4937096;28;20475;-70
2024/02/14 04:41:23;;;;;;;6.83;1.67;;;9.80;99.90;;;;;;4938607;28;21189;-71
2024/02/14 04:43:50;;;;;;;1.40;1.00;;;9.90;99.90;;;;;;4934480;28;20442;-70
2024/02/14 04:46:17;;;;;;;1.80;1.43;;;9.90;99.90;;;;;;4937013;28;20491;-71
2024/02/14 04:48:43;;;;;;;5.83;1.80;;;9.90;99.90;;;;;;4934876;28;20463;-71
2024/02/14 04:51:10;;;;;;;2.13;1.47;;;9.90;99.90;;;;;;4939965;28;20571;-71
2024/02/14 04:53:37;;;;;;;1.77;1.63;;;9.80;99.90;;;;;;4933941;28;20463;-71
2024/02/14 04:56:04;;;;;;;1.20;1.00;;;9.90;99.90;;;;;;4930991;28;20975;-70
2024/02/14 04:58:33;;;;;;;2.77;1.83;;;9.90;99.90;;;;;;4939442;28;20472;-70
2024/02/14 05:00:59;;;;;;;11.47;2.43;;;9.90;99.90;;;;;;4941228;28;20468;-70
2024/02/14 05:03:26;;;;;;;1.77;1.57;;;9.90;99.90;;;;;;4934334;28;20445;-71
2024/02/14 05:05:53;;;;;;;2.40;2.03;;;9.80;99.90;;;;;;4941401;28;20489;-71
2024/02/14 05:08:20;;;;;;;2.70;1.40;;;9.80;99.90;;;;;;4935878;28;20479;-70
2024/02/14 05:10:47;;;;;;;2.00;1.80;;;9.90;99.90;;;;;;4943066;28;20484;-69
2024/02/14 05:13:15;;;;;;;1.57;1.43;;;9.90;99.90;;;;;;4931892;28;20463;-70
2024/02/14 05:15:43;;;;;;;1.60;1.33;;;10.00;99.90;;;;;;4940891;28;20495;-70
2024/02/14 05:18:10;;;;;;;1.67;1.33;;;10.10;99.90;;;;;;4942701;28;20490;-71
2024/02/14 05:20:38;;;;;;;1.00;0.90;;;10.10;99.90;;;;;;4942731;28;20463;-70
2024/02/14 05:23:05;;;;;;;2.67;1.83;;;10.10;99.90;;;;;;4943407;28;20463;-71
2024/02/14 05:25:32;;;;;;;3.43;1.40;;;10.10;99.90;;;;;;4934174;28;20465;-70
2024/02/14 05:27:59;;;;;;;1.97;1.23;;;10.10;99.90;;;;;;4927809;28;21005;-71
2024/02/14 05:30:27;;;;;;;2.60;1.47;;;10.20;99.90;;;;;;4938714;28;20465;-71
2024/02/14 05:32:55;;;;;;;1.97;1.63;;;10.20;99.90;;;;;;4945239;28;20474;-70
2024/02/14 05:35:23;;;;;;;2.60;2.37;;;10.20;99.90;;;;;;4943168;28;20467;-71
2024/02/14 05:37:51;;;;;;;1.20;0.93;;;10.20;99.90;;;;;;4938197;28;20472;-70
2024/02/14 05:40:18;;;;;;;2.83;1.43;;;10.20;99.90;;;;;;4940041;28;20434;-71
2024/02/14 05:42:44;;;;;;;1.90;1.70;;;10.30;99.90;;;;;;4941553;28;20456;-71
2024/02/14 05:45:11;;;;;;;1.53;1.43;;;10.30;99.90;;;;;;4938080;28;20611;-71
2024/02/14 05:47:39;;;;;;;1.53;1.27;;;10.30;99.90;;;;;;4938017;28;20459;-71
2024/02/14 05:50:11;;;;;;;1.60;1.50;;;10.30;99.90;;;;;;4933093;28;20460;-71
2024/02/14 05:52:38;;;;;;;2.37;2.20;;;10.20;99.90;;;;;;4936091;28;20507;-70
2024/02/14 05:55:05;;;;;;;1.50;1.30;;;10.10;99.90;;;;;;4938412;28;20822;-71
2024/02/14 05:57:32;;;;;;;2.67;1.80;;;10.20;99.90;;;;;;4937824;28;20476;-71
2024/02/14 05:59:59;;;;;;;2.10;1.90;;;10.20;99.90;;;;;;4934916;28;20471;-70
2024/02/14 06:02:26;;;;;;;2.13;1.50;;;10.10;99.90;;;;;;4942048;28;21078;-70
2024/02/14 06:04:52;;;;;;;2.10;1.50;;;10.00;99.90;;;;;;4945589;28;20468;-71
2024/02/14 06:07:20;;;;;;;2.40;1.63;;;10.10;99.90;;;;;;4944976;28;20495;-71
2024/02/14 06:09:47;;;;;;;2.57;2.37;;;10.10;99.90;;;;;;4935440;28;20464;-71
2024/02/14 06:12:14;;;;;;;4.30;1.33;;;10.10;99.90;;;;;;4938795;28;20484;-71
2024/02/14 06:14:40;;;;;;;7.10;2.30;;;10.10;99.90;;;;;;4941094;28;20460;-70
2024/02/14 06:17:07;;;;;;;2.77;1.43;;;10.10;99.90;;;;;;4943796;28;20487;-71
2024/02/14 06:19:34;;;;;;;1.70;1.50;;;10.10;99.90;;;;;;4947751;28;20468;-71
2024/02/14 06:22:01;;;;;;;4.50;2.27;;;10.10;99.90;;;;;;4939426;28;20547;-71
2024/02/14 06:24:29;;;;;;;1.67;1.57;;;10.20;99.90;;;;;;4932456;28;20990;-71
2024/02/14 06:26:56;;;;;;;2.07;1.83;;;10.20;99.90;;;;;;4936462;28;20955;-71
2024/02/14 06:29:23;;;;;;;2.00;1.83;;;10.20;99.90;;;;;;4938135;28;20460;-71
2024/02/14 06:31:50;;;;;;;1.53;1.43;;;10.10;99.90;;;;;;4937941;28;20523;-71
2024/02/14 06:34:18;;;;;;;2.40;1.23;;;10.20;99.90;;;;;;4935207;28;20487;-71
2024/02/14 06:36:45;;;;;;;3.13;1.90;;;10.20;99.90;;;;;;4933967;28;20600;-70
2024/02/14 06:39:11;;;;;;;2.50;2.30;;;10.30;99.90;;;;;;4932145;28;20460;-71
2024/02/14 06:41:40;;;;;;;3.17;2.20;;;10.20;99.90;;;;;;4937092;28;20969;-71
2024/02/14 06:44:07;;;;;;;2.50;1.80;;;10.30;99.90;;;;;;4938140;28;20470;-70
2024/02/14 06:46:35;;;;;;;3.80;3.50;;;10.30;99.90;;;;;;4935860;28;20854;-69
2024/02/14 06:49:05;;;;;;;3.10;1.90;;;10.20;99.90;;;;;;4947430;28;20701;-70
2024/02/14 06:51:31;;;;;;;4.17;2.33;;;10.20;99.90;;;;;;4936832;28;20956;-70
2024/02/14 06:53:58;;;;;;;2.40;1.57;;;10.20;99.90;;;;;;4939198;28;20459;-70
2024/02/14 06:56:25;;;;;;;2.53;2.33;;;10.30;99.90;;;;;;4944766;28;20576;-71
2024/02/14 06:58:59;;;;;;;2.90;2.10;;;10.30;99.90;;;;;;4942127;28;20473;-71
2024/02/14 07:01:26;;;;;;;2.60;2.40;;;10.30;99.90;;;;;;4940378;28;20459;-71
2024/02/14 07:03:53;;;;;;;3.80;2.00;;;10.30;99.90;;;;;;4938588;28;20526;-71
2024/02/14 07:06:20;;;;;;;3.00;2.70;;;10.30;99.90;;;;;;4938546;28;20487;-71
2024/02/14 07:08:48;;;;;;;2.60;2.40;;;10.30;99.90;;;;;;4934240;28;20818;-71
2024/02/14 07:11:15;;;;;;;2.50;2.30;;;10.30;99.90;;;;;;4938933;28;20503;-71
2024/02/14 07:13:42;;;;;;;5.03;2.80;;;10.40;99.90;;;;;;4938856;28;20558;-72
2024/02/14 07:16:10;;;;;;;4.47;2.60;;;10.40;99.90;;;;;;4938439;28;20475;-71
2024/02/14 07:18:37;;;;;;;3.27;2.10;;;10.40;99.90;;;;;;4936923;28;20954;-71
2024/02/14 07:21:05;;;;;;;4.37;2.03;;;10.50;99.90;;;;;;4946741;28;20586;-72
2024/02/14 07:23:32;;;;;;;3.27;2.17;;;10.50;99.90;;;;;;4939226;28;20527;-71
2024/02/14 07:25:59;;;;;;;7.37;2.27;;;10.50;99.90;;;;;;4941758;28;20503;-70
2024/02/14 07:28:25;;;;;;;2.00;1.00;;;10.60;99.90;;;;;;4943924;28;20470;-70
2024/02/14 07:30:52;;;;;;;4.07;3.07;;;10.60;99.90;;;;;;4943111;28;20471;-71
2024/02/14 07:33:23;;;;;;;3.30;1.90;;;10.60;99.90;;;;;;4939517;28;20472;-72
2024/02/14 07:35:50;;;;;;;4.17;2.50;;;10.60;99.90;;;;;;4931134;28;20484;-71
2024/02/14 07:38:17;;;;;;;4.10;2.70;;;10.40;99.90;;;;;;4929758;28;22158;-71
2024/02/14 07:40:44;;;;;;;8.30;2.77;;;10.40;99.90;;;;;;4939458;28;20499;-71
2024/02/14 07:43:11;;;;;;;2.40;1.77;;;10.40;99.90;;;;;;4936143;28;20460;-71
2024/02/14 07:45:38;;;;;;;6.23;3.17;;;10.40;99.90;;;;;;4933421;28;20492;-71
2024/02/14 07:48:05;;;;;;;3.43;3.13;;;10.40;99.90;;;;;;4943120;28;20471;-71
2024/02/14 07:50:33;;;;;;;1.67;1.57;;;10.40;99.90;;;;;;4946690;28;20451;-71
2024/02/14 07:53:00;;;;;;;3.03;2.50;;;10.50;99.90;;;;;;4937620;28;20488;-72
2024/02/14 07:55:27;;;;;;;5.70;3.60;;;10.40;99.90;;;;;;4945846;28;20546;-71
2024/02/14 07:57:55;;;;;;;2.60;2.07;;;10.40;99.90;;;;;;4946065;28;20531;-70
2024/02/14 08:00:23;;;;;;;5.33;2.20;;;10.40;99.90;;;;;;4939732;28;20438;-71
2024/02/14 08:02:50;;;;;;;3.13;2.50;;;10.50;99.90;;;;;;4946252;28;20495;-71
2024/02/14 08:05:17;;;;;;;4.40;2.77;;;10.50;99.90;;;;;;4947663;28;20711;-71
2024/02/14 08:07:46;;;;;;;4.03;2.80;;;10.50;99.90;;;;;;4940846;28;20487;-72
2024/02/14 08:10:13;;;;;;;4.73;3.17;;;10.50;99.90;;;;;;4946874;28;20478;-73
2024/02/14 08:12:39;;;;;;;4.30;3.00;;;10.50;99.90;;;;;;4936102;28;20506;-72
2024/02/14 08:15:07;;;;;;;4.20;2.63;;;10.60;99.90;;;;;;4937801;28;20555;-72
2024/02/14 08:17:35;;;;;;;3.63;2.80;;;10.70;99.90;;;;;;4937440;28;20579;-71
2024/02/14 08:20:03;;;;;;;3.87;2.23;;;10.70;99.90;;;;;;4940626;28;20598;-71
2024/02/14 08:22:30;;;;;;;4.27;2.90;;;10.70;99.90;;;;;;4937968;28;20495;-71
2024/02/14 08:24:58;;;;;;;6.03;2.40;;;10.70;99.90;;;;;;4932479;28;20464;-70
2024/02/14 08:27:26;;;;;;;3.20;2.33;;;10.70;99.90;;;;;;4934879;28;20483;-72
2024/02/14 08:29:52;;;;;;;1.60;1.23;;;10.80;99.90;;;;;;4930032;28;21049;-71
2024/02/14 08:32:19;;;;;;;3.07;2.73;;;10.90;99.90;;;;;;4933968;28;21344;-71
2024/02/14 08:34:47;;;;;;;6.03;4.17;;;11.00;99.90;;;;;;4932229;28;20464;-70
2024/02/14 08:37:14;;;;;;;2.60;2.40;;;11.00;99.90;;;;;;4935481;28;20480;-72
2024/02/14 08:39:41;;;;;;;8.70;3.07;;;10.90;99.90;;;;;;4940025;28;20471;-71
2024/02/14 08:42:09;;;;;;;6.30;2.60;;;10.90;99.90;;;;;;4946983;28;20496;-72
2024/02/14 08:44:37;;;;;;;3.60;2.50;;;11.00;99.90;;;;;;4945854;28;20909;-71
2024/02/14 08:47:04;;;;;;;4.47;2.10;;;11.10;99.90;;;;;;4938368;28;20570;-71
2024/02/14 08:49:31;;;;;;;3.03;1.83;;;11.10;99.90;;;;;;4941121;28;20442;-71
2024/02/14 08:51:57;;;;;;;1.80;1.27;;;11.10;99.90;;;;;;5163520;23;20494;-70
2024/02/14 08:54:24;;;;;;;2.23;1.87;;;11.00;99.90;;;;;;4958914;28;20467;-70
2024/02/14 08:56:55;;;;;;;1.70;1.60;;;11.00;99.90;;;;;;4962883;28;20518;-70
2024/02/14 08:59:23;;;;;;;3.33;2.47;;;11.10;99.90;;;;;;4959038;28;20720;-70
2024/02/14 09:01:50;;;;;;;2.63;2.43;;;11.10;99.90;;;;;;4958836;28;20955;-70
2024/02/14 09:04:16;;;;;;;2.73;2.50;;;11.10;99.90;;;;;;4953060;28;20465;-70
2024/02/14 09:06:43;;;;;;;4.40;2.10;;;11.10;99.90;;;;;;4949488;28;20578;-70
2024/02/14 09:09:10;;;;;;;2.07;1.90;;;11.20;99.90;;;;;;4958278;28;20812;-70
2024/02/14 09:11:38;;;;;;;5.80;2.67;;;11.20;99.90;;;;;;4958038;28;20871;-70
2024/02/14 09:14:06;;;;;;;2.70;2.40;;;11.20;99.90;;;;;;4953387;28;20476;-70
2024/02/14 09:16:34;;;;;;;2.50;2.30;;;11.20;99.90;;;;;;4951061;28;20537;-70
2024/02/14 09:19:02;;;;;;;2.80;2.60;;;11.30;99.90;;;;;;4953821;28;20969;-70
2024/02/14 09:21:28;;;;;;;2.50;2.30;;;11.20;99.90;;;;;;4958450;28;20895;-71
2024/02/14 09:23:55;;;;;;;3.40;2.90;;;11.20;99.90;;;;;;4965062;28;20522;-70
2024/02/14 09:26:22;;;;;;;4.67;3.20;;;11.20;99.90;;;;;;4955866;28;20486;-70
2024/02/14 09:28:49;;;;;;;2.90;2.27;;;11.20;99.90;;;;;;4956536;28;20473;-70
2024/02/14 09:31:19;;;;;;;1.73;1.60;;;11.30;99.90;;;;;;4955029;28;20972;-70
2024/02/14 09:33:48;;;;;;;3.00;1.90;;;11.40;99.90;;;;;;4954093;28;20823;-69
2024/02/14 09:36:15;;;;;;;4.27;2.70;;;11.40;99.90;;;;;;4952291;28;21476;-70
2024/02/14 09:38:42;;;;;;;7.30;3.07;;;11.50;99.90;;;;;;4958913;28;20453;-70
2024/02/14 09:41:17;;;;;;;1.93;1.33;;;11.50;99.90;;;;;;4959291;28;20490;-70
2024/02/14 09:43:45;;;;;;;3.40;2.00;;;11.50;99.90;;;;;;4967108;28;20494;-69
2024/02/14 09:46:14;;;;;;;4.37;2.70;;;11.50;99.90;;;;;;4964269;28;20498;-70
2024/02/14 09:48:44;;;;;;;3.47;2.60;;;11.40;99.90;;;;;;4962941;28;20885;-70
2024/02/14 09:51:12;;;;;;;5.20;2.10;;;11.50;99.90;;;;;;4958548;28;21000;-70
2024/02/14 09:53:40;;;;;;;2.83;2.27;;;11.50;99.90;;;;;;4958299;28;20949;-70
2024/02/14 09:56:09;;;;;;;1.97;1.80;;;11.50;99.90;;;;;;4960432;28;20483;-71
2024/02/14 09:58:37;;;;;;;2.63;2.33;;;11.50;99.90;;;;;;4963796;28;20459;-70
2024/02/14 10:01:06;;;;;;;2.83;2.50;;;11.50;99.90;;;;;;4965964;28;20467;-70
2024/02/14 10:03:33;;;;;;;5.00;2.17;;;11.40;99.90;;;;;;4957898;28;20460;-69
2024/02/14 10:06:00;;;;;;;2.80;1.90;;;11.30;99.90;;;;;;4954884;28;20502;-69
2024/02/14 10:08:29;;;;;;;8.03;2.47;;;11.20;99.90;;;;;;4960738;28;20463;-69
2024/02/14 10:10:58;;;;;;;2.50;1.83;;;11.10;99.90;;;;;;4955556;28;20467;-69
2024/02/14 10:13:29;;;;;;;2.30;2.10;;;11.20;99.90;;;;;;4954378;28;21452;-69
2024/02/14 10:15:56;;;;;;;3.00;2.50;;;11.10;99.90;;;;;;4960013;28;21121;-69
2024/02/14 10:18:26;;;;;;;3.37;3.07;;;11.10;99.90;;;;;;4959654;28;20459;-69
2024/02/14 10:20:56;;;;;;;5.03;3.13;;;11.00;99.90;;;;;;4950024;28;20459;-69
2024/02/14 10:23:23;;;;;;;4.23;2.70;;;11.10;99.90;;;;;;4957108;28;21489;-70
2024/02/14 10:25:55;;;;;;;4.00;2.30;;;11.00;99.90;;;;;;4963665;28;20483;-69
2024/02/14 10:28:23;;;;;;;3.63;2.80;;;11.00;99.90;;;;;;4956309;28;20468;-69
2024/02/14 10:30:50;;;;;;;5.50;3.43;;;11.10;99.90;;;;;;4952431;28;21538;-69
2024/02/14 10:33:17;;;;;;;3.20;2.90;;;11.00;99.90;;;;;;4948131;28;20491;-69
2024/02/14 10:35:44;;;;;;;2.20;1.87;;;11.10;99.90;;;;;;4948929;28;20489;-69
2024/02/14 10:38:12;;;;;;;4.07;3.70;;;11.20;99.90;;;;;;4952414;28;22816;-69
2024/02/14 10:40:39;;;;;;;2.00;1.83;;;11.10;99.90;;;;;;4950042;28;20474;-71
2024/02/14 10:43:09;;;;;;;4.03;2.20;;;11.10;99.90;;;;;;4958377;28;20517;-69
2024/02/14 10:45:36;;;;;;;3.10;2.80;;;11.10;99.90;;;;;;4957891;28;20480;-69
2024/02/14 10:48:06;;;;;;;2.83;2.13;;;11.20;99.90;;;;;;4965512;28;20491;-69
2024/02/14 10:50:34;;;;;;;2.70;2.30;;;11.30;99.90;;;;;;4950725;28;20901;-70
2024/02/14 10:53:04;;;;;;;4.50;2.13;;;11.40;99.90;;;;;;4952597;28;20483;-69
2024/02/14 10:55:32;;;;;;;2.70;1.97;;;11.50;99.90;;;;;;4966949;28;21011;-69
2024/02/14 10:58:00;;;;;;;2.90;2.70;;;11.50;99.90;;;;;;4967724;28;20498;-69
2024/02/14 11:00:29;;;;;;;5.23;2.90;;;11.50;99.90;;;;;;4964067;28;20816;-69
2024/02/14 11:02:56;;;;;;;2.77;2.57;;;11.60;99.90;;;;;;4968410;28;20467;-70
2024/02/14 11:05:23;;;;;;;3.40;2.07;;;11.60;99.90;;;;;;4961522;28;20493;-70
2024/02/14 11:07:52;;;;;;;5.17;2.97;;;11.60;99.90;;;;;;4965041;28;20471;-70
2024/02/14 11:10:21;;;;;;;3.43;2.40;;;11.60;99.90;;;;;;4963411;28;20466;-70
2024/02/14 11:47:49;;;;;;;4.07;2.93;;;10.90;99.90;;;;;;5023578;28;20679;-69
2024/02/14 11:50:18;;;;;;;3.90;2.43;;;11.80;99.90;;;;;;5016906;28;20498;-70
2024/02/14 11:52:45;;;;;;;3.67;2.10;;;11.70;99.90;;;;;;5029077;28;20722;-69
2024/02/14 11:55:14;;;;;;;3.00;2.70;;;11.80;99.90;;;;;;4994323;28;20548;-70
2024/02/14 11:57:40;;;;;;;3.00;2.20;;;11.80;99.90;;;;;;5000297;28;20488;-70
2024/02/14 12:00:08;;;;;;;2.30;2.00;;;11.80;99.90;;;;;;5185150;23;20579;-69
2024/02/14 12:02:36;;;;;;;2.70;2.00;;;12.00;99.90;;;;;;4993195;28;20476;-71
2024/02/14 12:05:05;;;;;;;2.07;1.90;;;12.10;99.90;;;;;;4991705;28;20543;-72
2024/02/14 12:07:32;;;;;;;3.57;2.60;;;12.10;99.90;;;;;;4990171;28;20477;-71
2024/02/14 12:10:00;;;;;;;4.33;2.20;;;12.20;99.90;;;;;;4998383;28;20473;-70
2024/02/14 12:12:27;;;;;;;6.33;1.80;;;12.20;99.90;;;;;;4999411;28;20453;-70
2024/02/14 12:14:53;;;;;;;2.20;1.93;;;12.20;99.90;;;;;;4997884;28;20465;-70
2024/02/14 12:17:21;;;;;;;2.40;1.87;;;12.20;99.90;;;;;;4999128;28;20489;-70
2024/02/14 12:19:48;;;;;;;7.90;3.43;;;12.20;99.90;;;;;;4995455;28;20465;-69
2024/02/14 12:22:19;;;;;;;4.10;2.13;;;12.30;99.90;;;;;;4991795;28;20469;-70
2024/02/14 12:24:46;;;;;;;4.30;2.13;;;12.20;99.90;;;;;;4989477;28;20441;-69
2024/02/14 12:27:13;;;;;;;3.10;2.33;;;12.40;99.90;;;;;;4997106;28;20463;-70
2024/02/14 12:29:40;;;;;;;2.57;2.00;;;12.50;99.90;;;;;;4997252;28;20472;-70
2024/02/14 12:32:07;;;;;;;2.83;2.47;;;12.70;99.90;;;;;;4995616;28;20460;-70
2024/02/14 12:34:35;;;;;;;3.83;2.13;;;12.50;99.90;;;;;;4986158;28;20497;-70
2024/02/14 12:37:03;;;;;;;2.77;2.37;;;12.50;99.90;;;;;;4993653;28;20464;-70
2024/02/14 12:39:32;;;;;;;5.00;2.07;;;12.50;99.90;;;;;;4991218;28;20457;-70
2024/02/14 12:42:00;;;;;;;3.20;2.23;;;12.40;99.90;;;;;;4992062;28;20941;-70
2024/02/14 12:44:26;;;;;;;3.07;2.10;;;12.40;99.90;;;;;;4994604;28;20465;-70
2024/02/14 12:46:54;;;;;;;10.17;2.43;;;12.40;99.90;;;;;;4999478;28;20482;-70
2024/02/14 12:49:21;;;;;;;2.87;2.23;;;12.40;99.90;;;;;;4985735;28;20478;-70
2024/02/14 12:51:47;;;;;;;5.43;3.07;;;12.40;99.90;;;;;;4986983;28;20462;-70
2024/02/14 12:54:15;;;;;;;3.67;2.10;;;12.30;99.90;;;;;;4985070;28;21086;-70
2024/02/14 12:56:43;;;;;;;6.23;2.83;;;12.40;99.90;;;;;;4985463;28;21071;-70
2024/02/14 12:59:15;;;;;;;6.10;2.87;;;12.30;99.90;;;;;;4983579;28;20567;-70
2024/02/14 13:01:43;;;;;;;7.63;4.53;;;12.30;99.90;;;;;;4983634;28;20466;-70
2024/02/14 13:04:10;;;;;;;4.23;2.70;;;12.30;99.90;;;;;;4967369;28;20485;-70
2024/02/14 13:06:37;;;;;;;6.13;4.27;;;12.20;99.90;;;;;;4982330;28;20506;-70
2024/02/14 13:09:08;;;;;;;4.80;3.63;;;12.20;99.90;;;;;;4980599;28;20461;-71
2024/02/14 13:11:35;;;;;;;4.90;3.40;;;12.30;99.90;;;;;;4983673;28;20596;-69
2024/02/14 13:14:04;;;;;;;5.87;3.57;;;12.20;99.90;;;;;;4979073;28;20476;-69
2024/02/14 13:16:30;;;;;;;4.67;3.23;;;12.30;99.90;;;;;;4981844;28;20546;-69
2024/02/14 13:18:57;;;;;;;3.83;3.40;;;12.40;99.90;;;;;;4980438;28;20458;-70
2024/02/14 13:21:25;;;;;;;4.53;3.67;;;12.50;99.90;;;;;;4976439;28;20492;-70
2024/02/14 13:23:51;;;;;;;3.83;3.27;;;12.60;99.90;;;;;;4979802;28;20458;-70
2024/02/14 13:26:18;;;;;;;2.40;2.20;;;12.60;99.90;;;;;;4977651;28;21136;-70